createdAt,value
2016-10-06T07:22:36.038Z,30
2016-10-06T07:23:36.366Z,30
2016-10-06T07:24:34.805Z,30
2016-10-06T07:25:35.914Z,30
2016-10-06T07:26:36.769Z,30
2016-10-06T07:27:35.905Z,30
2016-10-06T07:28:35.559Z,30
2016-10-06T07:29:36.855Z,30
2016-10-06T07:30:35.516Z,30
2016-10-06T07:31:35.493Z,35
2016-10-06T07:32:36.353Z,35
2016-10-06T07:33:34.963Z,35
2016-10-06T07:34:34.636Z,35
2016-10-06T07:35:35.211Z,35
2016-10-06T07:36:35.786Z,35
2016-10-06T07:37:35.374Z,35
2016-10-06T07:38:34.721Z,35
2016-10-06T07:39:36.684Z,35
2016-10-06T07:40:35.337Z,40
2016-10-06T07:41:35.274Z,40
2016-10-06T07:42:35.415Z,40
2016-10-06T07:43:35.235Z,40
2016-10-06T07:44:35.853Z,40
2016-10-06T07:45:35.236Z,40
2016-10-06T07:46:35.122Z,40
2016-10-06T07:47:36.092Z,40
2016-10-06T07:48:35.408Z,40
2016-10-06T07:49:35.099Z,35
2016-10-06T07:50:35.765Z,35
2016-10-06T07:51:35.365Z,30
2016-10-06T07:52:35.915Z,30
2016-10-06T07:53:35.326Z,30
2016-10-06T07:54:35.742Z,30
2016-10-06T07:55:34.893Z,30
2016-10-06T07:56:35.802Z,30
2016-10-06T07:57:35.030Z,30
2016-10-06T07:58:34.825Z,30
2016-10-06T07:59:34.723Z,35
2016-10-06T08:00:34.443Z,35
2016-10-06T08:01:34.442Z,35
2016-10-06T08:02:35.657Z,35
2016-10-06T08:03:35.474Z,30
2016-10-06T08:04:34.783Z,30
2016-10-06T08:05:36.162Z,30
2016-10-06T08:06:35.333Z,25
2016-10-06T08:07:34.692Z,25
2016-10-06T08:08:35.025Z,25
2016-10-06T08:10:35.309Z,30
2016-10-06T08:11:34.750Z,35
2016-10-06T08:12:35.108Z,40
2016-10-06T08:13:34.589Z,40
2016-10-06T08:14:34.655Z,40
2016-10-06T08:15:34.239Z,40
2016-10-06T08:16:35.328Z,40
2016-10-06T08:17:34.792Z,40
2016-10-06T08:18:34.609Z,40
2016-10-06T08:19:35.840Z,40
2016-10-06T08:20:35.040Z,40
2016-10-06T08:21:35.020Z,45
2016-10-06T08:22:35.237Z,45
2016-10-06T08:23:34.742Z,50
2016-10-06T08:24:35.239Z,55
2016-10-06T08:25:35.229Z,60
2016-10-06T08:26:34.224Z,65
2016-10-06T08:27:34.252Z,65
2016-10-06T08:28:33.909Z,65
2016-10-06T08:29:34.349Z,70
2016-10-06T08:30:35.019Z,70
2016-10-06T08:31:35.632Z,65
2016-10-06T08:32:34.338Z,65
2016-10-06T08:33:33.461Z,65
2016-10-06T08:34:34.561Z,60
2016-10-06T08:35:34.785Z,60
2016-10-06T08:36:34.192Z,55
2016-10-06T08:37:33.989Z,55
2016-10-06T08:38:34.934Z,55
2016-10-06T08:39:33.451Z,55
2016-10-06T08:40:33.528Z,55
2016-10-06T08:41:34.776Z,55
2016-10-06T08:42:34.390Z,55
2016-10-06T08:43:33.396Z,55
2016-10-06T08:44:35.466Z,55
2016-10-06T08:45:33.959Z,55
2016-10-06T08:46:34.082Z,50
2016-10-06T08:47:33.641Z,50
2016-10-06T08:48:34.827Z,55
2016-10-06T08:49:34.888Z,55
2016-10-06T08:50:33.265Z,55
2016-10-06T08:51:34.638Z,55
2016-10-06T08:52:33.883Z,55
2016-10-06T08:53:33.193Z,55
2016-10-06T08:54:35.065Z,50
2016-10-06T08:55:35.172Z,50
2016-10-06T08:56:34.581Z,45
2016-10-06T08:57:33.787Z,45
2016-10-06T08:58:34.249Z,45
2016-10-06T08:59:32.840Z,40
2016-10-06T09:00:34.984Z,40
2016-10-06T09:01:33.627Z,40
2016-10-06T09:02:33.398Z,40
2016-10-06T09:03:35.058Z,40
2016-10-06T09:04:33.660Z,40
2016-10-06T09:05:32.925Z,40
2016-10-06T09:06:33.169Z,40
2016-10-06T09:07:34.200Z,40
2016-10-06T09:08:34.878Z,40
2016-10-06T09:09:33.882Z,35
2016-10-06T09:10:34.369Z,35
2016-10-06T09:11:33.195Z,35
2016-10-06T09:12:34.349Z,35
2016-10-06T09:13:33.678Z,35
2016-10-06T09:14:34.224Z,35
2016-10-06T09:15:33.592Z,35
2016-10-06T09:16:34.775Z,35
2016-10-06T09:17:33.778Z,35
2016-10-06T09:18:34.466Z,35
2016-10-06T09:19:34.770Z,35
2016-10-06T09:20:33.369Z,35
2016-10-06T09:21:34.009Z,35
2016-10-06T09:22:34.728Z,35
2016-10-06T09:23:34.161Z,35
2016-10-06T09:24:34.569Z,35
2016-10-06T09:25:33.999Z,35
2016-10-06T09:26:32.689Z,35
2016-10-06T09:27:33.316Z,35
2016-10-06T09:28:32.642Z,35
2016-10-06T09:29:32.757Z,35
2016-10-06T09:30:32.969Z,35
2016-10-06T09:31:34.133Z,35
2016-10-06T09:32:32.829Z,35
2016-10-06T09:33:32.698Z,35
2016-10-06T09:34:33.957Z,35
2016-10-06T09:35:33.420Z,35
2016-10-06T09:36:34.329Z,35
2016-10-06T09:37:33.127Z,35
2016-10-06T09:38:33.378Z,35
2016-10-06T09:39:33.242Z,35
2016-10-06T09:40:33.666Z,35
2016-10-06T09:41:33.170Z,35
2016-10-06T09:42:32.380Z,30
2016-10-06T09:43:33.192Z,30
2016-10-06T09:44:32.447Z,30
2016-10-06T09:45:33.428Z,30
2016-10-06T09:46:33.193Z,30
2016-10-06T09:47:33.581Z,30
2016-10-06T09:48:33.628Z,30
2016-10-06T09:49:33.473Z,30
2016-10-06T09:50:33.529Z,25
2016-10-06T09:51:33.529Z,25
2016-10-06T09:52:33.730Z,25
2016-10-06T09:53:33.480Z,30
2016-10-06T09:54:33.055Z,30
2016-10-06T09:55:32.110Z,30
2016-10-06T09:56:33.460Z,30
2016-10-06T09:57:33.650Z,30
2016-10-06T09:58:33.356Z,30
2016-10-06T09:59:32.310Z,25
2016-10-06T10:00:33.327Z,30
2016-10-06T10:01:33.326Z,25
2016-10-06T10:02:33.852Z,25
2016-10-06T10:03:32.488Z,25
2016-10-06T10:04:32.151Z,25
2016-10-06T10:05:32.690Z,25
2016-10-06T10:06:33.381Z,25
2016-10-06T10:07:32.550Z,25
2016-10-06T10:08:32.110Z,25
2016-10-06T10:09:33.161Z,25
2016-10-06T10:10:31.679Z,25
2016-10-06T10:11:32.744Z,25
2016-10-06T10:12:31.961Z,25
2016-10-06T10:13:33.769Z,25
2016-10-06T10:14:31.999Z,30
2016-10-06T10:15:32.175Z,30
2016-10-06T10:16:32.185Z,30
2016-10-06T10:17:32.268Z,30
2016-10-06T10:18:33.040Z,30
2016-10-06T10:19:32.197Z,30
2016-10-06T10:20:32.360Z,35
2016-10-06T10:21:32.132Z,35
2016-10-06T10:22:32.319Z,35
2016-10-06T10:23:30.889Z,35
2016-10-06T10:24:32.917Z,35
2016-10-06T10:25:31.421Z,35
2016-10-06T10:26:33.571Z,35
2016-10-06T10:27:32.734Z,35
2016-10-06T10:28:32.430Z,35
2016-10-06T10:29:31.740Z,35
2016-10-06T10:30:32.483Z,35
2016-10-06T10:31:33.431Z,35
2016-10-06T10:32:31.905Z,40
2016-10-06T10:33:31.780Z,40
2016-10-06T10:34:32.700Z,40
2016-10-06T10:35:31.643Z,40
2016-10-06T10:36:32.760Z,40
2016-10-06T10:37:31.247Z,40
2016-10-06T10:38:32.018Z,40
2016-10-06T10:39:31.871Z,40
2016-10-06T10:40:33.279Z,40
2016-10-06T10:41:31.308Z,40
2016-10-06T10:42:31.925Z,40
2016-10-06T10:43:30.703Z,40
2016-10-06T10:44:33.150Z,40
2016-10-06T10:45:32.420Z,40
2016-10-06T10:46:31.849Z,40
2016-10-06T10:47:32.471Z,40
2016-10-06T10:48:31.778Z,40
2016-10-06T10:49:31.645Z,40
2016-10-06T10:50:31.458Z,40
2016-10-06T10:51:31.858Z,45
2016-10-06T10:52:31.620Z,40
2016-10-06T10:53:31.311Z,40
2016-10-06T10:54:32.728Z,40
2016-10-06T10:55:32.980Z,40
2016-10-06T10:56:31.727Z,45
2016-10-06T10:57:31.704Z,45
2016-10-06T10:58:31.650Z,45
2016-10-06T10:59:31.420Z,50
2016-10-06T11:00:32.060Z,50
2016-10-06T11:01:30.818Z,55
2016-10-06T11:02:32.422Z,60
2016-10-06T11:03:31.502Z,60
2016-10-06T11:04:31.610Z,60
2016-10-06T11:05:30.110Z,60
2016-10-06T11:06:31.829Z,65
2016-10-06T11:07:31.908Z,65
2016-10-06T11:08:32.024Z,65
2016-10-06T11:09:31.642Z,60
2016-10-06T11:10:31.872Z,60
2016-10-06T11:11:31.383Z,55
2016-10-06T11:12:31.520Z,55
2016-10-06T11:13:31.857Z,55
2016-10-06T11:14:31.316Z,50
2016-10-06T11:15:31.535Z,50
2016-10-06T11:16:31.080Z,50
2016-10-06T11:17:31.849Z,55
2016-10-06T11:18:30.615Z,60
2016-10-06T11:19:32.168Z,65
2016-10-06T11:20:30.779Z,70
2016-10-06T11:21:31.218Z,70
2016-10-06T11:22:31.189Z,70
2016-10-06T11:23:31.808Z,75
2016-10-06T11:24:31.669Z,75
2016-10-06T11:25:32.307Z,80
2016-10-06T11:26:31.186Z,85
2016-10-06T11:27:31.608Z,80
2016-10-06T11:28:30.725Z,75
2016-10-06T11:29:31.028Z,70
2016-10-06T11:30:30.899Z,65
2016-10-06T11:31:31.913Z,55
2016-10-06T11:32:31.937Z,50
2016-10-06T11:33:31.499Z,50
2016-10-06T11:34:31.607Z,55
2016-10-06T11:35:31.458Z,60
2016-10-06T11:36:30.258Z,55
2016-10-06T11:37:31.108Z,55
2016-10-06T11:38:30.876Z,60
2016-10-06T11:39:31.496Z,55
2016-10-06T11:40:31.375Z,55
2016-10-06T11:41:30.666Z,60
2016-10-06T11:42:31.470Z,65
2016-10-06T11:43:31.247Z,70
2016-10-06T11:44:30.898Z,65
2016-10-06T11:45:30.834Z,65
2016-10-06T11:46:31.017Z,60
2016-10-06T11:47:31.246Z,60
2016-10-06T11:48:30.324Z,70
2016-10-06T11:49:31.598Z,65
2016-10-06T11:50:30.014Z,60
2016-10-06T11:51:30.111Z,60
2016-10-06T11:52:29.567Z,65
2016-10-06T11:53:30.874Z,65
2016-10-06T11:54:30.575Z,70
2016-10-06T11:55:29.268Z,70
2016-10-06T11:56:31.497Z,70
2016-10-06T11:57:31.268Z,65
2016-10-06T11:58:31.531Z,65
2016-10-06T11:59:31.130Z,70
2016-10-06T12:00:30.358Z,70
2016-10-06T12:01:31.503Z,75
2016-10-06T12:02:30.980Z,70
2016-10-06T12:03:30.308Z,65
2016-10-06T12:04:30.530Z,65
2016-10-06T12:05:31.031Z,65
2016-10-06T12:06:30.917Z,60
2016-10-06T12:07:30.376Z,60
2016-10-06T12:08:31.744Z,60
2016-10-06T12:09:29.532Z,55
2016-10-06T12:10:30.598Z,60
2016-10-06T12:11:30.678Z,60
2016-10-06T12:12:29.888Z,60
2016-10-06T12:13:30.278Z,65
2016-10-06T12:14:29.189Z,70
2016-10-06T12:15:31.077Z,60
2016-10-06T12:16:29.619Z,60
2016-10-06T12:17:30.588Z,55
2016-10-06T12:18:30.149Z,50
2016-10-06T12:19:30.248Z,45
2016-10-06T12:20:30.768Z,40
2016-10-06T12:21:30.973Z,45
2016-10-06T12:22:30.371Z,45
2016-10-06T12:23:30.320Z,45
2016-10-06T12:24:29.420Z,45
2016-10-06T12:25:31.368Z,45
2016-10-06T12:26:30.082Z,45
2016-10-06T12:27:30.687Z,40
2016-10-06T12:28:29.555Z,40
2016-10-06T12:29:30.679Z,40
2016-10-06T12:30:29.882Z,40
2016-10-06T12:31:30.429Z,45
2016-10-06T12:32:29.497Z,50
2016-10-06T12:33:29.922Z,50
2016-10-06T12:34:29.479Z,50
2016-10-06T12:35:29.153Z,55
2016-10-06T12:36:30.749Z,65
2016-10-06T12:37:29.020Z,70
2016-10-06T12:38:29.610Z,70
2016-10-06T12:39:30.928Z,70
2016-10-06T12:40:30.360Z,70
2016-10-06T12:41:29.145Z,70
2016-10-06T12:42:29.750Z,70
2016-10-06T12:43:29.091Z,65
2016-10-06T12:44:30.276Z,60
2016-10-06T12:45:29.380Z,65
2016-10-06T12:46:29.900Z,65
2016-10-06T12:47:29.671Z,65
2016-10-06T12:48:30.310Z,60
2016-10-06T12:49:30.270Z,60
2016-10-06T12:50:28.870Z,65
2016-10-06T12:51:30.949Z,65
2016-10-06T12:52:30.900Z,65
2016-10-06T12:53:29.472Z,70
2016-10-06T12:54:30.033Z,80
2016-10-06T12:55:28.830Z,90
2016-10-06T12:56:30.050Z,95
2016-10-06T12:57:29.429Z,95
2016-10-06T12:58:29.921Z,95
2016-10-06T12:59:30.624Z,100
2016-10-06T13:00:29.257Z,90
2016-10-06T13:01:30.330Z,75
2016-10-06T13:02:30.717Z,70
2016-10-06T13:03:29.872Z,60
2016-10-06T13:04:28.802Z,55
2016-10-06T13:05:28.431Z,55
2016-10-06T13:06:29.928Z,50
2016-10-06T13:07:29.250Z,45
2016-10-06T13:08:29.662Z,40
2016-10-06T13:09:29.741Z,40
2016-10-06T13:10:28.372Z,40
2016-10-06T13:11:28.820Z,40
2016-10-06T13:12:29.212Z,45
2016-10-06T13:13:29.081Z,45
2016-10-06T13:14:29.119Z,45
2016-10-06T13:15:28.121Z,45
2016-10-06T13:16:30.031Z,45
2016-10-06T13:17:28.919Z,45
2016-10-06T13:18:29.111Z,45
2016-10-06T13:19:29.343Z,45
2016-10-06T13:20:28.992Z,40
2016-10-06T13:21:29.505Z,40
2016-10-06T13:22:28.172Z,40
2016-10-06T13:23:30.422Z,40
2016-10-06T13:24:28.201Z,40
2016-10-06T13:25:29.289Z,40
2016-10-06T13:26:28.825Z,40
2016-10-06T13:27:28.682Z,40
2016-10-06T13:28:27.849Z,40
2016-10-06T13:29:29.120Z,40
2016-10-06T13:30:30.156Z,40
2016-10-06T13:31:29.423Z,45
2016-10-06T13:32:29.141Z,45
2016-10-06T13:33:29.089Z,45
2016-10-06T13:34:28.420Z,40
2016-10-06T13:35:28.895Z,45
2016-10-06T13:36:28.172Z,50
2016-10-06T13:37:29.364Z,50
2016-10-06T13:38:28.755Z,50
2016-10-06T13:39:29.402Z,50
2016-10-06T13:40:27.334Z,50
2016-10-06T13:41:28.973Z,45
2016-10-06T13:42:29.574Z,45
2016-10-06T13:43:28.725Z,45
2016-10-06T13:44:28.738Z,40
2016-10-06T13:45:28.128Z,45
2016-10-06T13:46:29.943Z,50
2016-10-06T13:47:29.896Z,50
2016-10-06T13:48:28.508Z,55
2016-10-06T13:49:28.605Z,65
2016-10-06T13:50:28.473Z,65
2016-10-06T13:51:28.125Z,65
2016-10-06T13:52:28.283Z,65
2016-10-06T13:53:29.544Z,70
2016-10-06T13:54:28.664Z,65
2016-10-06T13:55:28.522Z,65
2016-10-06T13:56:29.361Z,70
2016-10-06T13:57:27.065Z,70
2016-10-06T13:58:28.931Z,70
2016-10-06T13:59:29.064Z,65
2016-10-06T14:00:28.416Z,65
2016-10-06T14:01:28.259Z,60
2016-10-06T14:02:28.974Z,55
2016-10-06T14:03:28.478Z,55
2016-10-06T14:04:29.624Z,50
2016-10-06T14:05:28.125Z,45
2016-10-06T14:06:28.117Z,45
2016-10-06T14:07:28.463Z,45
2016-10-06T14:08:28.496Z,45
2016-10-06T14:09:28.558Z,45
2016-10-06T14:10:29.492Z,45
2016-10-06T14:11:28.194Z,50
2016-10-06T14:12:28.194Z,50
2016-10-06T14:13:28.806Z,50
2016-10-06T14:14:28.036Z,50
2016-10-06T14:15:28.102Z,55
2016-10-06T14:16:28.872Z,50
2016-10-06T14:17:27.407Z,50
2016-10-06T14:18:27.633Z,50
2016-10-06T14:19:28.156Z,55
2016-10-06T14:20:27.895Z,60
2016-10-06T14:21:27.918Z,60
2016-10-06T14:22:28.236Z,55
2016-10-06T14:23:28.632Z,60
2016-10-06T14:24:27.541Z,60
2016-10-06T14:25:28.485Z,60
2016-10-06T14:26:27.365Z,55
2016-10-06T14:27:28.786Z,55
2016-10-06T14:28:28.705Z,50
2016-10-06T14:29:27.672Z,50
2016-10-06T14:30:28.978Z,50
2016-10-06T14:31:28.546Z,50
2016-10-06T14:32:28.560Z,45
2016-10-06T14:33:27.731Z,40
2016-10-06T14:34:27.694Z,40
2016-10-06T14:35:28.335Z,40
2016-10-06T14:36:27.100Z,40
2016-10-06T14:37:27.828Z,40
2016-10-06T14:38:29.017Z,40
2016-10-06T14:39:28.309Z,40
2016-10-06T14:40:27.687Z,40
2016-10-06T14:41:27.935Z,40
2016-10-06T14:42:28.786Z,35
2016-10-06T14:43:28.487Z,35
2016-10-06T14:44:28.214Z,35
2016-10-06T14:45:28.462Z,30
2016-10-06T14:46:27.343Z,30
2016-10-06T14:47:26.406Z,30
2016-10-06T14:48:28.837Z,25
2016-10-06T14:49:28.857Z,25
2016-10-06T14:50:27.087Z,25
2016-10-06T14:51:27.545Z,25
2016-10-06T14:52:26.665Z,30
2016-10-06T14:53:28.665Z,30
2016-10-06T14:54:28.066Z,30
2016-10-06T14:55:26.025Z,35
2016-10-06T14:56:27.856Z,35
2016-10-06T14:57:27.456Z,35
2016-10-06T14:58:26.546Z,30
2016-10-06T14:59:27.664Z,30
2016-10-06T15:00:27.396Z,30
2016-10-06T15:01:27.290Z,25
2016-10-06T15:02:28.345Z,25
2016-10-06T15:03:26.547Z,20
2016-10-06T15:04:27.183Z,20
2016-10-06T15:05:27.994Z,20
2016-10-06T15:06:27.855Z,20
2016-10-06T15:07:27.133Z,20
2016-10-06T15:08:27.262Z,25
2016-10-06T15:09:27.705Z,25
2016-10-06T15:10:28.064Z,30
2016-10-06T15:11:27.627Z,30
2016-10-06T15:12:27.137Z,30
2016-10-06T15:13:27.191Z,35
2016-10-06T15:14:27.669Z,35
2016-10-06T15:15:27.743Z,35
2016-10-06T15:16:27.525Z,35
2016-10-06T15:17:26.511Z,35
2016-10-06T15:18:28.205Z,35
2016-10-06T15:19:26.824Z,35
2016-10-06T15:20:28.296Z,35
2016-10-06T15:21:26.346Z,35
2016-10-06T15:23:00.266Z,30
2016-10-06T15:23:27.851Z,30
2016-10-06T15:24:26.877Z,30
2016-10-06T15:25:26.275Z,30
2016-10-06T15:26:26.623Z,30
2016-10-06T15:27:27.361Z,25
2016-10-06T15:28:26.734Z,25
2016-10-06T15:29:27.555Z,20
2016-10-06T15:30:26.125Z,20
2016-10-06T15:31:26.752Z,20
2016-10-06T15:32:27.267Z,25
2016-10-06T15:33:26.762Z,25
2016-10-06T15:34:26.574Z,25
2016-10-06T15:35:26.659Z,25
2016-10-06T15:36:26.682Z,30
2016-10-06T15:37:27.168Z,30
2016-10-06T15:38:25.820Z,30
2016-10-06T15:39:27.395Z,30
2016-10-06T15:40:27.235Z,30
2016-10-06T15:41:27.614Z,30
2016-10-06T15:42:26.617Z,30
2016-10-06T15:43:27.276Z,30
2016-10-06T15:44:25.681Z,25
2016-10-06T15:45:27.263Z,25
2016-10-06T15:46:27.126Z,25
2016-10-06T15:47:27.204Z,20
2016-10-06T15:48:25.913Z,20
2016-10-06T15:49:26.254Z,20
2016-10-06T15:50:26.894Z,20
2016-10-06T15:51:27.175Z,20
2016-10-06T15:52:27.072Z,20
2016-10-06T15:53:26.881Z,15
2016-10-06T15:54:27.536Z,15
2016-10-06T15:55:27.188Z,15
2016-10-06T15:56:26.852Z,10
2016-10-06T15:57:26.665Z,10
2016-10-06T15:58:26.173Z,10
2016-10-06T15:59:26.256Z,10
2016-10-06T16:00:26.731Z,10
2016-10-06T16:01:25.084Z,10
2016-10-06T16:02:26.957Z,10
2016-10-06T16:03:26.888Z,10
2016-10-06T16:04:27.324Z,10
2016-10-06T16:05:25.804Z,10
2016-10-06T16:06:26.134Z,5
2016-10-06T16:07:26.804Z,5
2016-10-06T16:08:26.335Z,5
2016-10-06T16:09:25.829Z,5
2016-10-06T16:10:26.077Z,5
2016-10-06T16:11:26.928Z,5
2016-10-06T16:12:27.355Z,5
2016-10-06T16:13:26.576Z,5
2016-10-06T16:14:25.907Z,5
2016-10-06T16:15:26.308Z,5
2016-10-06T16:16:25.974Z,5
2016-10-06T16:17:26.623Z,5
2016-10-06T16:18:26.065Z,5
2016-10-06T16:19:26.152Z,5
2016-10-06T16:20:25.818Z,5
2016-10-06T16:21:25.255Z,0
2016-10-06T16:22:25.105Z,0
2016-10-06T16:23:26.004Z,0
2016-10-06T16:24:26.687Z,0
2016-10-06T16:25:26.028Z,5
2016-10-06T16:26:25.936Z,5
2016-10-06T16:27:25.076Z,5
2016-10-06T16:28:26.408Z,0
2016-10-06T16:29:26.345Z,0
2016-10-06T16:30:26.198Z,0
2016-10-06T16:31:26.305Z,0
2016-10-06T16:32:25.505Z,0
2016-10-06T16:33:26.927Z,0
2016-10-06T16:34:25.736Z,0
2016-10-06T16:35:26.844Z,0
2016-10-06T16:36:26.253Z,0
2016-10-06T16:37:24.913Z,0
2016-10-06T16:38:24.241Z,0
2016-10-06T16:39:24.806Z,0
2016-10-06T16:40:25.668Z,0
2016-10-06T16:41:25.601Z,0
2016-10-06T16:42:25.526Z,0
2016-10-06T16:43:26.178Z,0
2016-10-06T16:44:26.630Z,0
2016-10-06T16:45:25.951Z,0
2016-10-06T16:46:26.055Z,0
2016-10-06T16:47:25.943Z,0
2016-10-06T16:48:26.314Z,0
2016-10-06T16:49:26.551Z,0
2016-10-06T16:50:25.881Z,0
2016-10-06T16:51:25.040Z,0
2016-10-06T16:52:24.267Z,0
2016-10-06T16:53:26.333Z,0
2016-10-06T16:54:25.524Z,0
2016-10-06T16:55:26.091Z,0
2016-10-06T16:56:25.154Z,0
2016-10-06T16:57:26.171Z,0
2016-10-06T16:58:26.370Z,0
2016-10-06T16:59:25.954Z,0
2016-10-06T17:00:25.353Z,0
2016-10-06T17:01:24.071Z,0
2016-10-06T17:02:25.432Z,0
2016-10-06T17:03:25.228Z,0
2016-10-06T17:04:24.680Z,0
2016-10-06T17:05:25.571Z,0
2016-10-06T17:06:26.271Z,0
2016-10-06T17:07:25.716Z,0
2016-10-06T17:08:25.471Z,0
2016-10-06T17:09:24.888Z,0
2016-10-06T17:10:24.926Z,0
2016-10-06T17:11:25.448Z,0
2016-10-06T17:12:24.377Z,0
2016-10-06T17:13:24.916Z,0
2016-10-06T17:14:25.111Z,0
2016-10-06T17:15:23.602Z,0
2016-10-06T17:16:24.391Z,0
2016-10-06T17:17:24.839Z,0
2016-10-06T17:18:25.076Z,0
2016-10-06T17:19:26.006Z,0
2016-10-06T17:20:24.404Z,0
2016-10-06T17:21:25.962Z,0
2016-10-06T17:22:24.509Z,0
2016-10-06T17:23:24.772Z,0
2016-10-06T17:24:25.221Z,0
2016-10-06T17:25:25.667Z,0
2016-10-06T17:26:24.532Z,0
2016-10-06T17:27:24.940Z,0
2016-10-06T17:28:25.820Z,0
2016-10-06T17:29:23.971Z,0
2016-10-06T17:30:24.806Z,0
2016-10-06T17:31:25.778Z,0
2016-10-06T17:32:24.594Z,0
2016-10-06T17:33:24.633Z,0
2016-10-06T17:34:24.589Z,0
2016-10-06T17:35:25.411Z,0
2016-10-06T17:36:24.560Z,0
2016-10-06T17:37:24.412Z,0
2016-10-06T17:38:24.668Z,0
2016-10-06T17:39:24.982Z,0
2016-10-06T17:40:24.360Z,0
2016-10-06T17:41:25.091Z,0
2016-10-06T17:42:24.219Z,0
2016-10-06T17:43:24.443Z,0
2016-10-06T17:44:24.850Z,0
2016-10-06T17:45:25.000Z,0
2016-10-06T17:46:24.671Z,0
2016-10-06T17:47:25.618Z,0
2016-10-06T17:48:24.181Z,0
2016-10-06T17:49:25.173Z,0
2016-10-06T17:50:24.313Z,0
2016-10-06T17:51:25.422Z,0
2016-10-06T17:52:24.687Z,0
2016-10-06T17:53:24.210Z,0
2016-10-06T17:54:24.258Z,0
2016-10-06T17:55:24.088Z,0
2016-10-06T17:56:23.981Z,0
2016-10-06T17:57:25.510Z,0
2016-10-06T17:58:23.637Z,0
2016-10-06T17:59:23.509Z,0
2016-10-06T18:00:24.329Z,0
2016-10-06T18:01:23.959Z,0
2016-10-06T18:02:23.839Z,0
2016-10-06T18:03:42.475Z,0
2016-10-06T18:04:53.359Z,0
2016-10-06T18:05:56.771Z,0
2016-10-06T18:06:46.880Z,0
2016-10-06T18:07:43.697Z,0
2016-10-06T18:08:23.428Z,0
2016-10-06T18:09:23.500Z,0
2016-10-06T18:10:24.659Z,0
2016-10-06T18:11:25.130Z,0
2016-10-06T18:12:24.767Z,0
2016-10-06T18:13:23.988Z,0
2016-10-06T18:14:24.347Z,0
2016-10-06T18:15:24.450Z,0
2016-10-06T18:16:24.260Z,0
2016-10-06T18:17:24.414Z,0
2016-10-06T18:18:23.348Z,0
2016-10-06T18:19:24.053Z,0
2016-10-06T18:20:24.907Z,0
2016-10-06T18:21:24.129Z,0
2016-10-06T18:22:24.339Z,0
2016-10-06T18:23:23.490Z,0
2016-10-06T18:24:24.407Z,0
2016-10-06T18:25:23.559Z,0
2016-10-06T18:26:24.549Z,0
2016-10-06T18:27:23.737Z,0
2016-10-06T18:28:24.118Z,0
2016-10-06T18:29:22.949Z,0
2016-10-06T18:30:22.988Z,0
2016-10-06T18:31:24.028Z,0
2016-10-06T18:32:23.358Z,0
2016-10-06T18:33:23.896Z,0
2016-10-06T18:34:22.718Z,0
2016-10-06T18:35:23.728Z,0
2016-10-06T18:36:23.656Z,0
2016-10-06T18:37:22.774Z,0
2016-10-06T18:38:24.034Z,0
2016-10-06T18:39:23.170Z,0
2016-10-06T18:40:23.898Z,0
2016-10-06T18:41:23.968Z,0
2016-10-06T18:42:23.552Z,0
2016-10-06T18:43:24.608Z,0
2016-10-06T18:44:23.446Z,0
2016-10-06T18:45:23.450Z,0
2016-10-06T18:46:23.898Z,0
2016-10-06T18:47:23.162Z,0
2016-10-06T18:48:23.857Z,0
2016-10-06T18:49:24.261Z,0
2016-10-06T18:50:24.463Z,0
2016-10-06T18:51:23.889Z,0
2016-10-06T18:52:23.159Z,0
2016-10-06T18:53:24.009Z,0
2016-10-06T18:54:23.840Z,0
2016-10-06T18:55:23.194Z,0
2016-10-06T18:56:24.230Z,0
2016-10-06T18:57:22.806Z,0
2016-10-06T18:58:24.349Z,0
2016-10-06T18:59:24.161Z,0
2016-10-06T19:00:23.609Z,0
2016-10-06T19:01:23.679Z,0
2016-10-06T19:02:23.060Z,0
2016-10-06T19:03:23.214Z,0
2016-10-06T19:04:23.430Z,0
2016-10-06T19:05:23.066Z,0
2016-10-06T19:06:22.730Z,0
2016-10-06T19:07:22.655Z,0
2016-10-06T19:08:23.099Z,0
2016-10-06T19:09:23.272Z,0
2016-10-06T19:10:23.316Z,0
2016-10-06T19:11:23.290Z,0
2016-10-06T19:12:23.920Z,0
2016-10-06T19:13:22.474Z,0
2016-10-06T19:14:23.208Z,0
2016-10-06T19:15:22.809Z,0
2016-10-06T19:16:22.530Z,0
2016-10-06T19:17:21.869Z,0
2016-10-06T19:18:22.671Z,0
2016-10-06T19:19:23.140Z,0
2016-10-06T19:20:23.525Z,0
2016-10-06T19:21:23.509Z,0
2016-10-06T19:22:22.852Z,0
2016-10-06T19:23:23.485Z,0
2016-10-06T19:24:22.368Z,0
2016-10-06T19:25:23.273Z,0
2016-10-06T19:26:22.521Z,0
2016-10-06T19:27:21.788Z,0
2016-10-06T19:28:22.951Z,0
2016-10-06T19:29:22.038Z,0
2016-10-06T19:30:22.900Z,0
2016-10-06T19:31:22.811Z,0
2016-10-06T19:32:23.171Z,0
2016-10-06T19:33:22.492Z,0
2016-10-06T19:34:23.091Z,0
2016-10-06T19:35:22.518Z,0
2016-10-06T19:36:22.972Z,0
2016-10-06T19:37:22.847Z,0
2016-10-06T19:38:22.972Z,0
2016-10-06T19:39:22.975Z,0
2016-10-06T19:40:22.902Z,0
2016-10-06T19:41:22.071Z,0
2016-10-06T19:42:22.906Z,0
2016-10-06T19:43:22.804Z,0
2016-10-06T19:44:22.699Z,0
2016-10-06T19:45:22.784Z,0
2016-10-06T19:46:23.075Z,0
2016-10-06T19:47:23.439Z,0
2016-10-06T19:48:23.023Z,0
2016-10-06T19:49:21.922Z,0
2016-10-06T19:50:20.874Z,0
2016-10-06T19:51:22.291Z,0
2016-10-06T19:52:21.789Z,0
2016-10-06T19:53:22.385Z,0
2016-10-06T19:54:21.192Z,0
2016-10-06T19:55:22.246Z,0
2016-10-06T19:56:23.232Z,0
2016-10-06T19:57:21.223Z,0
2016-10-06T19:58:22.682Z,0
2016-10-06T19:59:21.807Z,0
2016-10-06T20:00:21.301Z,0
2016-10-06T20:01:22.091Z,0
2016-10-06T20:02:22.355Z,0
2016-10-06T20:03:21.179Z,0
2016-10-06T20:04:22.070Z,0
2016-10-06T20:05:22.053Z,0
2016-10-06T20:06:21.405Z,0
2016-10-06T20:07:20.292Z,0
2016-10-06T20:08:23.080Z,0
2016-10-06T20:09:21.363Z,0
2016-10-06T20:10:20.948Z,0
2016-10-06T20:11:22.154Z,0
2016-10-06T20:12:22.132Z,0
2016-10-06T20:13:22.344Z,0
2016-10-06T20:14:21.843Z,0
2016-10-06T20:15:20.993Z,0
2016-10-06T20:16:21.442Z,0
2016-10-06T20:17:21.847Z,0
2016-10-06T20:18:22.931Z,0
2016-10-06T20:19:20.704Z,0
2016-10-06T20:20:21.623Z,0
2016-10-06T20:21:20.393Z,0
2016-10-06T20:22:21.589Z,0
2016-10-06T20:23:21.353Z,0
2016-10-06T20:24:21.457Z,0
2016-10-06T20:25:22.624Z,0
2016-10-06T20:26:22.713Z,0
2016-10-06T20:27:21.983Z,0
2016-10-06T20:28:21.903Z,0
2016-10-06T20:29:21.614Z,0
2016-10-06T20:30:21.350Z,0
2016-10-06T20:31:21.874Z,0
2016-10-06T20:32:21.539Z,0
2016-10-06T20:33:22.284Z,0
2016-10-06T20:34:21.928Z,0
2016-10-06T20:35:21.224Z,0
2016-10-06T20:36:21.480Z,0
2016-10-06T20:37:20.654Z,0
2016-10-06T20:38:22.356Z,0
2016-10-06T20:39:21.014Z,0
2016-10-06T20:40:21.024Z,0
2016-10-06T20:41:22.423Z,0
2016-10-06T20:42:21.555Z,0
2016-10-06T20:43:21.875Z,0
2016-10-06T20:44:21.130Z,0
2016-10-06T20:45:22.343Z,0
2016-10-06T20:46:20.551Z,0
2016-10-06T20:47:22.338Z,0
2016-10-06T20:48:20.901Z,0
2016-10-06T20:49:20.756Z,0
2016-10-06T20:50:21.213Z,0
2016-10-06T20:51:22.341Z,0
2016-10-06T20:52:21.702Z,0
2016-10-06T20:53:21.267Z,0
2016-10-06T20:54:20.907Z,0
2016-10-06T20:55:21.587Z,0
2016-10-06T20:56:21.775Z,0
2016-10-06T20:57:21.384Z,0
2016-10-06T20:58:20.866Z,0
2016-10-06T20:59:20.706Z,0
2016-10-06T21:00:21.722Z,0
2016-10-06T21:01:21.470Z,0
2016-10-06T21:02:20.002Z,0
2016-10-06T21:03:21.880Z,0
2016-10-06T21:04:21.566Z,0
2016-10-06T21:05:21.174Z,0
2016-10-06T21:06:21.525Z,0
2016-10-06T21:07:20.919Z,0
2016-10-06T21:08:20.523Z,0
2016-10-06T21:09:20.073Z,0
2016-10-06T21:10:20.259Z,0
2016-10-06T21:11:20.610Z,0
2016-10-06T21:12:20.253Z,0
2016-10-06T21:13:20.662Z,0
2016-10-06T21:14:21.465Z,0
2016-10-06T21:15:20.776Z,0
2016-10-06T21:16:19.832Z,0
2016-10-06T21:17:21.666Z,0
2016-10-06T21:18:20.519Z,0
2016-10-06T21:19:21.221Z,0
2016-10-06T21:20:20.833Z,0
2016-10-06T21:21:21.102Z,0
2016-10-06T21:22:20.934Z,0
2016-10-06T21:23:20.413Z,0
2016-10-06T21:24:20.193Z,0
2016-10-06T21:25:20.593Z,0
2016-10-06T21:26:20.328Z,0
2016-10-06T21:27:20.573Z,0
2016-10-06T21:28:20.626Z,0
2016-10-06T21:29:19.536Z,0
2016-10-06T21:30:20.833Z,0
2016-10-06T21:31:20.805Z,0
2016-10-06T21:32:20.143Z,0
2016-10-06T21:33:20.754Z,0
2016-10-06T21:34:20.065Z,0
2016-10-06T21:35:20.724Z,0
2016-10-06T21:36:20.411Z,0
2016-10-06T21:37:20.784Z,0
2016-10-06T21:38:20.264Z,0
2016-10-06T21:39:21.399Z,0
2016-10-06T21:40:20.671Z,0
2016-10-06T21:41:20.273Z,0
2016-10-06T21:42:18.895Z,0
2016-10-06T21:43:19.605Z,0
2016-10-06T21:44:19.931Z,0
2016-10-06T21:45:18.833Z,0
2016-10-06T21:46:20.552Z,0
2016-10-06T21:47:20.163Z,0
2016-10-06T21:48:19.162Z,0
2016-10-06T21:49:19.765Z,0
2016-10-06T21:50:19.538Z,0